AirNav   TITAN Aviation Fuels
 
 1441 users online  

3FD9 Prairie Lake Private Residential Seaplane Mooring Facility
Altamonte Springs, Florida, USA

GOING TO ALTAMONTE SPRINGS?


FAA INFORMATION EFFECTIVE 20 MAY 2021

Location

FAA Identifier: 3FD9
Lat/Long: 28-39-23.9920N 081-21-12.2460W
28-39.399867N 081-21.204100W
28.6566644,-81.3534017
(estimated)
Elevation: 86 ft. / 26 m (estimated)
Variation: 03W (1985)
From city: 1 mile SE of ALTAMONTE SPRINGS, FL
Time zone: UTC -4 (UTC -5 during Standard Time)
Zip code: 32730

Seaplane Base Operations

Seaplane Base use: Private use. Permission required prior to landing
Activation date: 02/1988
Control tower: no
ARTCC: JACKSONVILLE CENTER
FSS: SAINT PETERSBURG FLIGHT SERVICE STATION
Attendance: UNATNDD
Wind indicator: yes
Segmented circle: no

Seaplane Base Communications

WX ASOS at ORL (7 nm S): 127.25 (407-658-6753)
WX ASOS at SFB (10 nm NE): 125.975 (407-321-9384)
WX ASOS at MCO (14 nm S): PHONE 407-855-5235

Nearby radio navigation aids

VOR radial/distance  VOR name  Freq  Var
ORLr352/6.9ORLANDO VORTAC112.2000E

Seaplane Base Services

Runway Information

Runway 5W/23W

Dimensions: 1800 x 100 ft. / 549 x 30 m
Surface: water
RUNWAY 5W  RUNWAY 23W
Traffic pattern: leftleft

Seaplane Base Ownership and Management from official FAA records

Ownership: Privately-owned
Owner: RICHARD L. & MICHAEL T. HENSCH
259 ROBIN COURT
ALTAMONTE SPRINGS, FL 32701
Phone 407-331-5655
ARLIS E. CLAXTON
Manager: RICHARD L. & MICHAEL T. HENSCH
259 ROBIN COURT
ALTAMONTE SPRINGS, FL 32701
Phone 407-331-5655
407-831-6513

Seaplane Base Operational Statistics

Aircraft based on the field: 9
Single engine airplanes: 5
Helicopters: 1
Ultralights: 3
    

Additional Remarks

FOR CD CTC ORLANDO APCH AT 407-852-7553.

Instrument Procedures

There are no published instrument procedures at 3FD9.

Some nearby airports with instrument procedures:

KORL - Executive Airport (7 nm S)
KSFB - Orlando Sanford International Airport (10 nm NE)
X04 - Orlando Apopka Airport (12 nm W)
KMCO - Orlando International Airport (14 nm S)
X23 - Umatilla Municipal Airport (22 nm NW)
 
Loc | Ops | Rwys | IFR | FBO | Links
Com | Nav | Svcs | Stats | Notes


 
Area around 3FD9 (Prairie Lake Private Residential Seaplane Mooring Facility)
 
Road maps at: MapQuest Bing Google
 
Aerial photo
No photo
 
Sectional chart

 
Airport distance calculator
Flying to Prairie Lake Private Residential Seaplane Mooring Facility? Find the distance to fly.

From to 3FD9

Sunrise and sunset
Times for 16-Jun-2021
 Local
(UTC-4)
 Zulu
(UTC)
Morning civil twilight06:0110:01
Sunrise06:2810:28
Sunset20:2400:24
Evening civil twilight20:5100:51

Current date and time
Zulu (UTC)  16-Jun-2021 17:34:53
Local (UTC-4)  16-Jun-2021 13:34:53
 
METAR
KORL 
6nm S 
161653Z 27010KT 10SM FEW036 31/22 A3000 RMK AO2 LTG DSNT SW SLP160 T03110222
KSFB 
10nm NE 
161653Z 24012KT 10SM SCT040 BKN049 31/22 A3000 RMK AO2 SLP156 T03110217
KMCO 
14nm S 
161653Z 28008KT 10SM SCT037 OVC300 31/22 A2999 RMK AO2 LTG DSNT SW RAB10E20 SLP155 P0000 T03060217
TAF
KSFB 
10nm NE 
161128Z 1612/1712 24008KT P6SM FEW030 SCT150 BKN200 FM161500 25012G18KT P6SM VCTS SCT035CB BKN120 TEMPO 1616/1620 3SM TSRA BKN035CB FM162100 24012G18KT P6SM SCT035 BKN100 FM170100 20008KT P6SM FEW025 SCT120 BKN200
KMCO 
14nm S 
161459Z 1615/1718 24012G18KT P6SM VCTS SCT035CB SCT120 BKN300 TEMPO 1616/1620 3SM TSRA BKN035CB FM162100 23010G15KT P6SM SCT035 BKN100 FM170100 20006KT P6SM FEW025 SCT120 BKN200 FM171400 25012KT P6SM FEW025 SCT150 BKN250
NOTAMs
Click for the latest NOTAMs
NOTAMs are issued by the DoD/FAA and will open in a separate window not controlled by AirNav.

 

 
 

Would you like to see your business listed on this page?

 If your business provides an interesting product or service to pilots, flight crews, aircraft, or users of the Prairie Lake Private Residential Seaplane Mooring Facility, you should consider listing it here.  To start the listing process, click on the button below
 
Add a business
 

Other Pages about Prairie Lake Private Residential Seaplane Mooring Facility

Update a link
 
Copyright © AirNav, LLC. All rights reserved. Privacy Policy  Contact